createdAt,value
2022-12-31T00:00:28.558Z,0
2022-12-31T00:05:30.167Z,0
2022-12-31T00:10:31.930Z,0
2022-12-31T00:15:33.830Z,0
2022-12-31T00:20:35.305Z,0
2022-12-31T00:25:36.922Z,0
2022-12-31T00:30:38.815Z,0
2022-12-31T00:35:40.278Z,0
2022-12-31T00:40:41.772Z,0
2022-12-31T00:45:43.416Z,0.88715
2022-12-31T00:50:44.944Z,0
2022-12-31T00:55:46.604Z,0
2022-12-31T01:00:48.425Z,0
2022-12-31T01:05:49.965Z,0
2022-12-31T01:10:51.478Z,0
2022-12-31T01:15:53.263Z,0.88715
2022-12-31T01:20:54.811Z,0.88715
2022-12-31T01:25:57.163Z,0
2022-12-31T01:30:58.896Z,0
2022-12-31T01:36:00.625Z,0
2022-12-31T01:41:02.400Z,0
2022-12-31T01:46:04.787Z,0
2022-12-31T01:51:06.563Z,0
2022-12-31T01:56:08.597Z,0
2022-12-31T02:01:10.403Z,0
2022-12-31T02:06:12.305Z,0
2022-12-31T02:11:14.083Z,0
2022-12-31T02:16:15.956Z,0
2022-12-31T02:21:17.637Z,0
2022-12-31T02:26:19.620Z,0
2022-12-31T02:31:21.421Z,0
2022-12-31T02:36:23.187Z,0
2022-12-31T02:41:24.686Z,0.88715
2022-12-31T02:46:26.599Z,0.88715
2022-12-31T02:51:28.400Z,0.88715
2022-12-31T02:56:30.359Z,1.16185
2022-12-31T03:01:32.477Z,0.5333
2022-12-31T03:06:34.341Z,3.85445
2022-12-31T03:11:36.109Z,2.42955
2022-12-31T03:16:37.770Z,4.59225
2022-12-31T03:21:39.481Z,8.4467
2022-12-31T03:26:41.261Z,12.4856
2022-12-31T03:31:42.933Z,13.40785
2022-12-31T03:36:44.439Z,16.8934
2022-12-31T03:41:46.020Z,19.77045
2022-12-31T03:46:47.862Z,22.4079
2022-12-31T03:51:49.423Z,23.1457
2022-12-31T03:56:55.362Z,27.5535
2022-12-31T04:02:01.819Z,27.3139
2022-12-31T04:07:03.657Z,24.5918
2022-12-31T04:12:05.393Z,33.01285
2022-12-31T04:17:07.127Z,44.28145
2022-12-31T04:22:08.891Z,117.8126
2022-12-31T04:27:10.670Z,145.56955
2022-12-31T04:32:12.494Z,152.4132
2022-12-31T04:37:14.260Z,161.67185
2022-12-31T04:42:16.015Z,165.1574
2022-12-31T04:47:23.296Z,161.6167
2022-12-31T04:52:25.556Z,160.2319
2022-12-31T04:57:27.517Z,185.2978
2022-12-31T05:02:29.466Z,200.4578
2022-12-31T05:07:31.349Z,216.68755
2022-12-31T05:12:33.135Z,221.0402
2022-12-31T05:17:34.891Z,238.93
2022-12-31T05:22:36.691Z,224.28615
2022-12-31T05:27:38.450Z,224.193
2022-12-31T05:32:40.001Z,257.24385
2022-12-31T05:37:41.603Z,288.8001
2022-12-31T05:42:43.260Z,335.51525
2022-12-31T05:47:45.086Z,343.2073
2022-12-31T05:52:47.720Z,328.5083
2022-12-31T05:57:49.771Z,317.0269
2022-12-31T06:02:51.451Z,332.4338
2022-12-31T06:07:53.370Z,353.29245
2022-12-31T06:12:54.804Z,391.1579
2022-12-31T06:17:56.489Z,423.1568
2022-12-31T06:22:58.099Z,489.28785
2022-12-31T06:27:59.755Z,487.86575
2022-12-31T06:33:01.491Z,475.718
2022-12-31T06:38:03.213Z,523.00535
2022-12-31T06:43:04.807Z,533.07915
2022-12-31T06:48:06.875Z,559.56715
2022-12-31T06:53:08.473Z,628.60185
2022-12-31T06:58:10.151Z,730.0503
2022-12-31T07:03:11.705Z,682.8225
2022-12-31T07:08:13.268Z,694.02225
2022-12-31T07:13:14.854Z,662.675
2022-12-31T07:18:16.286Z,689.93325
2022-12-31T07:23:17.998Z,845.66075
2022-12-31T07:28:19.755Z,673.2226
2022-12-31T07:33:21.345Z,612.6618
2022-12-31T07:38:22.805Z,574.1446
2022-12-31T07:43:24.564Z,446.95025
2022-12-31T07:48:26.208Z,355.1034
2022-12-31T07:53:27.878Z,300.3163
2022-12-31T07:58:29.492Z,267.36925
2022-12-31T08:03:31.082Z,285.6204
2022-12-31T08:08:32.671Z,328.70045
2022-12-31T08:13:34.163Z,474.89165
2022-12-31T08:18:35.875Z,782.72975
2022-12-31T08:23:37.316Z,743.67955
2022-12-31T08:28:38.989Z,1367.5948
2022-12-31T08:33:40.493Z,810.28335
2022-12-31T08:38:42.004Z,574.49885
2022-12-31T08:43:43.459Z,510.087
2022-12-31T08:48:45.211Z,521.3675
2022-12-31T08:53:46.768Z,744.80555
2022-12-31T08:58:48.431Z,1188.16525
2022-12-31T09:03:50.088Z,1128.258
2022-12-31T09:08:51.564Z,741.77835
2022-12-31T09:13:53.310Z,1196.28405
2022-12-31T09:18:54.895Z,812.9517
2022-12-31T09:23:56.399Z,762.405
2022-12-31T09:28:58.076Z,678.1411
2022-12-31T09:33:59.784Z,1686.27625
2022-12-31T09:39:01.353Z,629.9647
2022-12-31T09:44:03.117Z,597.48095
2022-12-31T09:49:05.186Z,1444.92335
2022-12-31T09:54:06.651Z,1606.3405
2022-12-31T09:59:08.308Z,1329.43405
2022-12-31T10:04:10.165Z,1528.1222
2022-12-31T10:09:11.909Z,1520.7743
2022-12-31T10:14:13.514Z,1564.03185
2022-12-31T10:19:15.294Z,1511.9451
2022-12-31T10:24:16.779Z,1417.07485
2022-12-31T10:29:18.410Z,1564.38765
2022-12-31T10:34:19.976Z,1161.678
2022-12-31T10:39:24.421Z,1501.10105
2022-12-31T10:44:26.655Z,1480.89435
2022-12-31T10:49:28.534Z,643.29365
2022-12-31T10:54:30.071Z,1364.7508
2022-12-31T10:59:32.727Z,613.47715
2022-12-31T11:04:34.405Z,644.3526
2022-12-31T11:09:36.154Z,591.2268
2022-12-31T11:14:37.858Z,709.7202
2022-12-31T11:19:39.449Z,769.54135
2022-12-31T11:24:40.998Z,880.9668
2022-12-31T11:29:42.869Z,963.58745
2022-12-31T11:34:44.549Z,1052.54985
2022-12-31T11:39:45.974Z,1580.27165
2022-12-31T11:44:47.701Z,1562.13925
2022-12-31T11:49:49.513Z,1546.4956
2022-12-31T11:54:50.979Z,1554.43605
2022-12-31T11:59:52.688Z,1587.5606
2022-12-31T12:04:54.337Z,1606.70035
2022-12-31T12:09:56.120Z,1611.5592
2022-12-31T12:14:57.873Z,1674.78705
2022-12-31T12:19:59.461Z,852.0596
2022-12-31T12:25:01.275Z,811.81705
2022-12-31T12:30:03.264Z,803.1859
2022-12-31T12:35:05.104Z,830.047
2022-12-31T12:40:06.852Z,1551.6507
2022-12-31T12:45:08.644Z,1495.00105
2022-12-31T12:50:11.005Z,1571.5025
2022-12-31T12:55:12.725Z,939.14505
2022-12-31T13:00:14.992Z,724.5527
2022-12-31T13:05:16.818Z,872.3454
2022-12-31T13:10:18.642Z,1164.1099
2022-12-31T13:15:20.293Z,655.6824
2022-12-31T13:20:22.742Z,503.8091
2022-12-31T13:25:24.488Z,541.0453
2022-12-31T13:30:26.137Z,477.7312
2022-12-31T13:35:27.886Z,532.9865
2022-12-31T13:40:29.623Z,650.72125
2022-12-31T13:45:31.530Z,893.51865
2022-12-31T13:50:33.731Z,1281.02495
2022-12-31T13:55:35.492Z,1222.71625
2022-12-31T14:00:37.539Z,842.22305
2022-12-31T14:05:39.507Z,717.3309
2022-12-31T14:10:41.188Z,1221.64905
2022-12-31T14:15:42.691Z,980.05675
2022-12-31T14:20:44.275Z,858.3995
2022-12-31T14:25:45.741Z,792.0772
2022-12-31T14:30:48.103Z,1124.70965
2022-12-31T14:35:49.640Z,990.3475
2022-12-31T14:40:51.398Z,1490.88005
2022-12-31T14:45:53.054Z,1318.72095
2022-12-31T14:50:55.732Z,1289.17465
2022-12-31T14:55:57.440Z,1139.3113
2022-12-31T15:01:00.301Z,606.45695
2022-12-31T15:06:02.172Z,440.51585
2022-12-31T15:11:03.967Z,337.12835
2022-12-31T15:16:05.734Z,303.80175
2022-12-31T15:21:07.539Z,245.91085
2022-12-31T15:26:09.079Z,190.5281
2022-12-31T15:31:17.486Z,175.6275
2022-12-31T15:36:20.456Z,171.94035
2022-12-31T15:41:22.256Z,138.6156
2022-12-31T15:46:24.148Z,115.56305
2022-12-31T15:51:26.050Z,123.4184
2022-12-31T15:56:27.840Z,139.77745
2022-12-31T16:01:30.092Z,131.09115
2022-12-31T16:06:32.258Z,107.09735
2022-12-31T16:11:34.054Z,76.1876
2022-12-31T16:16:35.556Z,52.37825
2022-12-31T16:21:37.373Z,61.56275
2022-12-31T16:26:39.133Z,60.82495
2022-12-31T16:31:40.797Z,54.3882
2022-12-31T16:36:42.621Z,41.95775
2022-12-31T16:41:44.088Z,34.35915
2022-12-31T16:46:45.565Z,24.5918
2022-12-31T16:51:47.635Z,19.0216
2022-12-31T16:56:49.341Z,13.80695
2022-12-31T17:01:51.585Z,8.8293
2022-12-31T17:06:53.168Z,4.5628
2022-12-31T17:11:54.860Z,4.0389
2022-12-31T17:17:02.133Z,1.53075
2022-12-31T17:22:05.188Z,1.16185
2022-12-31T17:27:06.710Z,0.88715
2022-12-31T17:32:08.706Z,0.88715
2022-12-31T17:37:14.442Z,0.88715
2022-12-31T17:42:19.493Z,0.88715
2022-12-31T17:47:21.140Z,0
2022-12-31T17:52:22.934Z,0.88715
2022-12-31T17:57:24.639Z,0
2022-12-31T18:02:26.408Z,0
2022-12-31T18:07:28.135Z,0.88715
2022-12-31T18:12:29.637Z,0.88715
2022-12-31T18:17:31.296Z,0
2022-12-31T18:22:33.115Z,0.88715
2022-12-31T18:27:34.882Z,0
2022-12-31T18:32:36.870Z,0
2022-12-31T18:37:38.697Z,0
2022-12-31T18:42:40.424Z,0
2022-12-31T18:47:41.853Z,0.88715
2022-12-31T18:52:43.898Z,0
2022-12-31T18:57:45.356Z,0
2022-12-31T19:02:47.400Z,0
2022-12-31T19:07:49.109Z,0.88715
2022-12-31T19:12:50.877Z,0.88715
2022-12-31T19:17:52.685Z,0
2022-12-31T19:22:54.515Z,0
2022-12-31T19:27:56.364Z,0.88715
2022-12-31T19:32:58.651Z,0.88715
2022-12-31T19:38:00.460Z,0
2022-12-31T19:43:02.282Z,0.88715
2022-12-31T19:48:04.136Z,0
2022-12-31T19:53:06.599Z,0
2022-12-31T19:58:08.383Z,0.88715
2022-12-31T20:03:10.367Z,0
2022-12-31T20:08:12.248Z,0
2022-12-31T20:13:13.992Z,0
2022-12-31T20:18:15.825Z,0
2022-12-31T20:23:17.620Z,0
2022-12-31T20:28:19.471Z,0.88715
2022-12-31T20:33:21.470Z,0
2022-12-31T20:38:23.299Z,0
2022-12-31T20:43:25.123Z,0
2022-12-31T20:48:26.887Z,0
2022-12-31T20:53:28.952Z,0.88715
2022-12-31T20:58:30.731Z,0
2022-12-31T21:04:03.026Z,0
2022-12-31T21:09:06.733Z,0
2022-12-31T21:14:08.527Z,0
2022-12-31T21:19:10.328Z,0
2022-12-31T21:24:11.835Z,0
2022-12-31T21:29:13.339Z,0.88715
2022-12-31T21:34:15.111Z,0
2022-12-31T21:39:16.705Z,0
2022-12-31T21:44:18.218Z,0.88715
2022-12-31T21:49:19.730Z,0
2022-12-31T21:54:21.613Z,0
2022-12-31T21:59:23.155Z,0.88715
2022-12-31T22:05:00.447Z,0.88715
2022-12-31T22:10:03.756Z,0
2022-12-31T22:15:15.640Z,0
2022-12-31T22:20:27.016Z,0
2022-12-31T22:25:29.344Z,0
2022-12-31T22:30:30.860Z,0
2022-12-31T22:35:32.598Z,0
2022-12-31T22:40:34.219Z,0
2022-12-31T22:45:35.663Z,0.88715
2022-12-31T22:50:37.124Z,0
2022-12-31T22:55:39.124Z,0
2022-12-31T23:00:40.872Z,0
2022-12-31T23:05:42.614Z,0
2022-12-31T23:10:44.136Z,0
2022-12-31T23:15:45.696Z,0
2022-12-31T23:20:47.220Z,0
2022-12-31T23:25:48.819Z,0
2022-12-31T23:30:50.660Z,0
2022-12-31T23:35:52.591Z,0
2022-12-31T23:40:54.093Z,0
2022-12-31T23:45:55.895Z,0
2022-12-31T23:50:57.324Z,0
2022-12-31T23:55:58.944Z,0
